createdAt,value
2018-12-21T00:00:04.622Z,99.99
2018-12-21T00:00:30.677Z,99.99
2018-12-21T00:00:56.790Z,99.99
2018-12-21T00:01:22.895Z,99.99
2018-12-21T00:01:49.003Z,99.99
2018-12-21T00:02:15.144Z,99.99
2018-12-21T00:02:41.246Z,99.99
2018-12-21T00:03:07.352Z,99.99
2018-12-21T00:03:33.494Z,99.99
2018-12-21T00:03:59.618Z,99.99
2018-12-21T00:04:25.731Z,99.99
2018-12-21T00:04:51.832Z,99.99
2018-12-21T00:05:17.940Z,99.99
2018-12-21T00:05:44.081Z,99.99
2018-12-21T00:06:10.210Z,99.99
2018-12-21T00:06:36.315Z,99.99
2018-12-21T00:07:02.469Z,99.99
2018-12-21T00:07:28.752Z,99.99
2018-12-21T00:07:54.858Z,99.99
2018-12-21T00:08:21.060Z,99.99
2018-12-21T00:08:47.133Z,99.99
2018-12-21T00:09:13.254Z,99.99
2018-12-21T00:09:39.359Z,99.99
2018-12-21T00:10:05.508Z,99.99
2018-12-21T00:10:31.607Z,99.99
2018-12-21T00:10:57.840Z,99.99
2018-12-21T00:11:24.069Z,99.99
2018-12-21T00:11:50.220Z,99.99
2018-12-21T00:12:16.321Z,99.99
2018-12-21T00:12:42.458Z,99.99
2018-12-21T00:13:08.590Z,99.99
2018-12-21T00:13:34.691Z,99.99
2018-12-21T00:14:00.803Z,99.99
2018-12-21T00:14:26.909Z,99.99
2018-12-21T00:14:53.153Z,99.99
2018-12-21T00:15:19.202Z,99.99
2018-12-21T00:15:45.313Z,99.99
2018-12-21T00:16:11.420Z,99.99
2018-12-21T00:16:37.529Z,99.99
2018-12-21T00:17:03.718Z,99.99
2018-12-21T00:17:34.392Z,99.99
2018-12-21T00:17:56.929Z,99.99
2018-12-21T00:18:23.123Z,99.99
2018-12-21T00:18:49.256Z,99.99
2018-12-21T00:19:15.367Z,99.99
2018-12-21T00:19:41.465Z,99.99
2018-12-21T00:20:07.587Z,99.99
2018-12-21T00:20:33.758Z,99.99
2018-12-21T00:20:59.885Z,99.99
2018-12-21T00:21:27.382Z,99.99
2018-12-21T00:21:53.542Z,99.99
2018-12-21T00:22:19.692Z,99.99
2018-12-21T00:22:45.799Z,99.99
2018-12-21T00:23:11.971Z,99.99
2018-12-21T00:23:38.161Z,99.99
2018-12-21T00:24:04.277Z,99.99
2018-12-21T00:24:30.380Z,99.99
2018-12-21T00:24:56.493Z,99.99
2018-12-21T00:25:22.622Z,99.99
2018-12-21T00:25:48.852Z,99.99
2018-12-21T00:26:14.963Z,99.99
2018-12-21T00:26:41.065Z,99.99
2018-12-21T00:27:07.170Z,99.99
2018-12-21T00:27:33.377Z,99.99
2018-12-21T00:27:59.815Z,99.99
2018-12-21T00:28:25.949Z,99.99
2018-12-21T00:28:52.066Z,99.99
2018-12-21T00:29:18.586Z,99.99
2018-12-21T00:29:44.729Z,99.99
2018-12-21T00:30:10.857Z,99.99
2018-12-21T00:30:36.937Z,99.99
2018-12-21T00:31:03.197Z,99.99
2018-12-21T00:31:29.366Z,99.99
2018-12-21T00:31:55.469Z,99.99
2018-12-21T00:32:21.581Z,99.99
2018-12-21T00:32:47.713Z,99.99
2018-12-21T00:33:13.894Z,99.99
2018-12-21T00:33:39.994Z,99.99
2018-12-21T00:34:06.127Z,99.99
2018-12-21T00:34:32.230Z,99.99
2018-12-21T00:34:58.367Z,99.99
2018-12-21T00:35:24.498Z,99.99
2018-12-21T00:35:50.633Z,99.99
2018-12-21T00:36:16.742Z,99.99
2018-12-21T00:36:42.873Z,99.99
2018-12-21T00:37:08.991Z,99.99
2018-12-21T00:37:35.097Z,99.99
2018-12-21T00:38:01.209Z,99.99
2018-12-21T00:38:27.310Z,99.99
2018-12-21T00:38:53.459Z,99.99
2018-12-21T00:39:19.589Z,99.99
2018-12-21T00:39:45.690Z,99.99
2018-12-21T00:40:11.797Z,99.99
2018-12-21T00:40:37.916Z,99.99
2018-12-21T00:41:04.064Z,99.99
2018-12-21T00:41:30.165Z,99.99
2018-12-21T00:41:56.264Z,99.99
2018-12-21T00:42:22.396Z,99.99
2018-12-21T00:42:48.510Z,99.99
2018-12-21T00:43:14.652Z,99.99
2018-12-21T00:43:40.759Z,99.99
2018-12-21T00:44:06.867Z,99.99
2018-12-21T00:44:32.997Z,99.99
2018-12-21T00:44:59.128Z,99.99
2018-12-21T00:45:25.260Z,99.99
2018-12-21T00:45:51.391Z,99.99
2018-12-21T00:46:17.511Z,99.99
2018-12-21T00:46:43.658Z,99.99
2018-12-21T00:47:09.815Z,99.99
2018-12-21T00:47:35.917Z,99.99
2018-12-21T00:48:02.026Z,99.99
2018-12-21T00:48:28.136Z,99.99
2018-12-21T00:48:54.293Z,99.99
2018-12-21T00:49:20.392Z,99.99
2018-12-21T00:49:46.535Z,99.99
2018-12-21T00:50:12.727Z,99.99
2018-12-21T00:50:38.870Z,99.99
2018-12-21T00:51:04.981Z,99.99
2018-12-21T00:51:32.078Z,99.99
2018-12-21T00:51:58.213Z,99.99
2018-12-21T00:52:24.318Z,99.99
2018-12-21T00:52:50.423Z,99.99
2018-12-21T00:53:16.534Z,99.99
2018-12-21T00:53:42.670Z,99.99
2018-12-21T00:54:08.804Z,99.99
2018-12-21T00:54:34.942Z,99.99
2018-12-21T00:55:01.045Z,99.99
2018-12-21T00:55:27.236Z,99.99
2018-12-21T00:55:53.447Z,99.99
2018-12-21T00:56:19.500Z,99.99
2018-12-21T00:56:45.612Z,99.99
2018-12-21T00:57:11.723Z,99.99
2018-12-21T00:57:37.824Z,99.99
2018-12-21T00:58:03.955Z,99.99
2018-12-21T00:58:30.068Z,99.99
2018-12-21T00:58:56.174Z,99.99
2018-12-21T00:59:22.331Z,99.99
2018-12-21T00:59:48.463Z,99.99
2018-12-21T01:00:14.689Z,99.99
2018-12-21T01:00:40.861Z,99.99
2018-12-21T01:01:06.944Z,99.99
2018-12-21T01:01:33.051Z,99.99
2018-12-21T01:01:59.180Z,99.99
2018-12-21T01:02:25.282Z,99.99
2018-12-21T01:02:51.393Z,99.99
2018-12-21T01:03:17.505Z,99.99
2018-12-21T01:03:43.607Z,99.99
2018-12-21T01:04:09.714Z,99.99
2018-12-21T01:04:35.816Z,99.99
2018-12-21T01:05:01.997Z,99.99
2018-12-21T01:05:28.051Z,99.99
2018-12-21T01:05:54.186Z,99.99
2018-12-21T01:06:20.285Z,99.99
2018-12-21T01:06:46.386Z,99.99
2018-12-21T01:07:12.492Z,99.99
2018-12-21T01:07:38.594Z,99.99
2018-12-21T01:08:04.702Z,99.99
2018-12-21T01:08:30.812Z,99.99
2018-12-21T01:08:56.912Z,99.99
2018-12-21T01:09:23.013Z,99.99
2018-12-21T01:09:49.120Z,99.99
2018-12-21T01:10:15.259Z,99.99
2018-12-21T01:10:41.366Z,99.99
2018-12-21T01:11:07.472Z,99.99
2018-12-21T01:11:33.574Z,99.99
2018-12-21T01:11:59.677Z,99.99
2018-12-21T01:12:25.790Z,99.99
2018-12-21T01:12:51.896Z,99.99
2018-12-21T01:13:18.004Z,99.99
2018-12-21T01:13:44.135Z,99.99
2018-12-21T01:14:10.242Z,99.99
2018-12-21T01:14:36.346Z,99.99
2018-12-21T01:15:02.447Z,99.99
2018-12-21T01:15:28.552Z,99.99
2018-12-21T01:15:54.690Z,99.99
2018-12-21T01:16:20.797Z,99.99
2018-12-21T01:16:46.907Z,99.99
2018-12-21T01:17:13.021Z,99.99
2018-12-21T01:17:39.125Z,99.99
2018-12-21T01:18:05.231Z,99.99
2018-12-21T01:18:31.340Z,99.99
2018-12-21T01:18:57.464Z,99.99
2018-12-21T01:19:23.604Z,99.99
2018-12-21T01:19:49.708Z,99.99
2018-12-21T01:20:15.816Z,99.99
2018-12-21T01:20:41.911Z,99.99
2018-12-21T01:21:08.021Z,99.99
2018-12-21T01:21:38.640Z,99.99
2018-12-21T01:22:01.251Z,99.99
2018-12-21T01:22:27.352Z,99.99
2018-12-21T01:22:53.464Z,99.99
2018-12-21T01:23:19.604Z,99.99
2018-12-21T01:23:45.707Z,99.99
2018-12-21T01:24:11.809Z,99.99
2018-12-21T01:24:37.917Z,99.99
2018-12-21T01:25:04.019Z,99.99
2018-12-21T01:25:30.125Z,99.99
2018-12-21T01:25:56.238Z,99.99
2018-12-21T01:26:22.342Z,99.99
2018-12-21T01:26:48.439Z,99.99
2018-12-21T01:27:14.546Z,99.99
2018-12-21T01:27:40.664Z,99.99
2018-12-21T01:28:06.770Z,99.99
2018-12-21T01:28:33.130Z,99.99
2018-12-21T01:28:59.261Z,99.99
2018-12-21T01:29:25.365Z,99.99
2018-12-21T01:29:51.515Z,99.99
2018-12-21T01:30:17.619Z,99.99
2018-12-21T01:30:43.753Z,99.99
2018-12-21T01:31:09.891Z,99.99
2018-12-21T01:31:36.020Z,99.99
2018-12-21T01:32:02.125Z,99.99
2018-12-21T01:32:28.286Z,99.99
2018-12-21T01:32:54.336Z,99.99
2018-12-21T01:33:20.448Z,99.99
2018-12-21T01:33:46.549Z,99.99
2018-12-21T01:34:12.656Z,99.99
2018-12-21T01:34:38.767Z,99.99
2018-12-21T01:35:04.878Z,99.99
2018-12-21T01:35:30.975Z,99.99
2018-12-21T01:35:57.087Z,99.99
2018-12-21T01:36:23.199Z,99.99
2018-12-21T01:36:49.307Z,99.99
2018-12-21T01:37:15.408Z,99.99
2018-12-21T01:37:41.517Z,99.99
2018-12-21T01:38:07.624Z,99.99
2018-12-21T01:38:33.763Z,99.99
2018-12-21T01:38:59.870Z,99.99
2018-12-21T01:39:25.979Z,99.99
2018-12-21T01:39:52.083Z,99.99
2018-12-21T01:40:18.207Z,99.99
2018-12-21T01:40:44.328Z,99.99
2018-12-21T01:41:10.467Z,99.99
2018-12-21T01:41:36.577Z,99.99
2018-12-21T01:42:02.712Z,99.99
2018-12-21T01:42:28.817Z,99.99
2018-12-21T01:42:54.947Z,99.99
2018-12-21T01:43:21.056Z,99.99
2018-12-21T01:43:47.162Z,99.99
2018-12-21T01:44:13.262Z,99.99
2018-12-21T01:44:39.373Z,99.99
2018-12-21T01:45:05.473Z,99.99
2018-12-21T01:45:31.578Z,99.99
2018-12-21T01:45:57.685Z,99.99
2018-12-21T01:46:23.797Z,99.99
2018-12-21T01:46:49.899Z,99.99
2018-12-21T01:47:16.013Z,99.99
2018-12-21T01:47:42.109Z,99.99
2018-12-21T01:48:08.242Z,99.99
2018-12-21T01:48:34.347Z,99.99
2018-12-21T01:49:00.451Z,99.99
2018-12-21T01:49:26.559Z,99.99
2018-12-21T01:49:52.667Z,99.99
2018-12-21T01:50:18.773Z,99.99
2018-12-21T01:50:44.879Z,99.99
2018-12-21T01:51:10.988Z,99.99
2018-12-21T01:51:37.087Z,99.99
2018-12-21T01:52:04.178Z,99.99
2018-12-21T01:52:30.286Z,99.99
2018-12-21T01:52:56.399Z,99.99
2018-12-21T01:53:22.502Z,99.99
2018-12-21T01:53:48.602Z,99.99
2018-12-21T01:54:14.708Z,99.99
2018-12-21T01:54:40.814Z,99.99
2018-12-21T01:55:06.923Z,99.99
2018-12-21T01:55:33.030Z,99.99
2018-12-21T01:55:59.135Z,99.99
2018-12-21T01:56:25.231Z,99.99
2018-12-21T01:56:51.339Z,99.99
2018-12-21T01:57:17.467Z,99.99
2018-12-21T01:57:43.574Z,99.99
2018-12-21T01:58:09.684Z,99.99
2018-12-21T01:58:35.787Z,99.99
2018-12-21T01:59:01.918Z,99.99
2018-12-21T01:59:28.029Z,99.99
2018-12-21T01:59:54.156Z,99.99
2018-12-21T02:00:20.269Z,99.99
2018-12-21T02:00:46.393Z,99.99
2018-12-21T02:01:12.505Z,99.99
2018-12-21T02:01:38.616Z,99.99
2018-12-21T02:02:04.722Z,99.99
2018-12-21T02:02:30.830Z,99.99
2018-12-21T02:02:56.934Z,99.99
2018-12-21T02:03:23.040Z,99.99
2018-12-21T02:03:49.145Z,99.99
2018-12-21T02:04:15.282Z,99.99
2018-12-21T02:04:41.392Z,99.99
2018-12-21T02:05:07.500Z,99.99
2018-12-21T02:05:33.605Z,99.99
2018-12-21T02:05:59.715Z,99.99
2018-12-21T02:06:25.822Z,99.99
2018-12-21T02:06:51.922Z,99.99
2018-12-21T02:07:18.028Z,99.99
2018-12-21T02:07:44.133Z,99.99
2018-12-21T02:08:10.232Z,99.99
2018-12-21T02:08:36.360Z,99.99
2018-12-21T02:09:02.528Z,99.99
2018-12-21T02:09:28.638Z,99.99
2018-12-21T02:09:54.747Z,99.99
2018-12-21T02:10:20.853Z,99.99
2018-12-21T02:10:46.958Z,99.99
2018-12-21T02:11:13.068Z,99.99
2018-12-21T02:11:39.173Z,99.99
2018-12-21T02:12:05.307Z,99.99
2018-12-21T02:12:31.407Z,99.99
2018-12-21T02:12:57.548Z,99.99
2018-12-21T02:13:23.650Z,99.99
2018-12-21T02:13:49.753Z,99.99
2018-12-21T02:14:15.860Z,99.99
2018-12-21T02:14:41.966Z,99.99
2018-12-21T02:15:08.073Z,99.99
2018-12-21T02:15:34.190Z,99.99
2018-12-21T02:16:00.291Z,99.99
2018-12-21T02:16:26.431Z,99.99
2018-12-21T02:16:52.534Z,99.99
2018-12-21T02:17:18.664Z,99.99
2018-12-21T02:17:44.771Z,99.99
2018-12-21T02:18:10.880Z,99.99
2018-12-21T02:18:36.987Z,99.99
2018-12-21T02:19:03.117Z,99.99
2018-12-21T02:19:29.217Z,99.99
2018-12-21T02:19:55.374Z,99.99
2018-12-21T02:20:21.493Z,99.99
2018-12-21T02:20:47.595Z,99.99
2018-12-21T02:21:13.695Z,99.99
2018-12-21T02:21:39.805Z,99.99
2018-12-21T02:22:06.925Z,99.99
2018-12-21T02:22:33.034Z,99.99
2018-12-21T02:22:59.165Z,99.99
2018-12-21T02:23:25.264Z,99.99
2018-12-21T02:23:51.402Z,99.99
2018-12-21T02:24:17.532Z,99.99
2018-12-21T02:24:43.639Z,99.99
2018-12-21T02:25:09.834Z,99.99
2018-12-21T02:25:35.896Z,99.99
2018-12-21T02:26:01.989Z,99.99
2018-12-21T02:26:28.096Z,99.99
2018-12-21T02:26:54.198Z,99.99
2018-12-21T02:27:20.307Z,99.99
2018-12-21T02:27:46.415Z,99.99
2018-12-21T02:28:12.519Z,99.99
2018-12-21T02:28:38.625Z,99.99
2018-12-21T02:29:04.765Z,99.99
2018-12-21T02:29:30.870Z,99.99
2018-12-21T02:29:57.004Z,99.99
2018-12-21T02:30:23.115Z,99.99
2018-12-21T02:30:49.247Z,99.99
2018-12-21T02:31:15.383Z,99.99
2018-12-21T02:31:41.510Z,99.99
2018-12-21T02:32:07.650Z,99.99
2018-12-21T02:32:33.758Z,99.99
2018-12-21T02:32:59.868Z,99.99
2018-12-21T02:33:26.030Z,99.99
2018-12-21T02:33:52.171Z,99.99
2018-12-21T02:34:18.271Z,99.99
2018-12-21T02:34:44.373Z,99.99
2018-12-21T02:35:10.510Z,99.99
2018-12-21T02:35:36.647Z,99.99
2018-12-21T02:36:02.800Z,99.99
2018-12-21T02:36:28.946Z,99.99
2018-12-21T02:36:55.097Z,99.99
2018-12-21T02:37:21.207Z,99.99
2018-12-21T02:37:47.340Z,99.99
2018-12-21T02:38:13.442Z,99.99
2018-12-21T02:38:39.549Z,99.99
2018-12-21T02:39:05.652Z,99.99
2018-12-21T02:39:31.789Z,99.99
2018-12-21T02:39:57.963Z,99.99
2018-12-21T02:40:24.129Z,99.99
2018-12-21T02:40:50.267Z,99.99
2018-12-21T02:41:16.377Z,99.99
2018-12-21T02:41:42.502Z,99.99
2018-12-21T02:42:08.613Z,99.99
2018-12-21T02:42:34.719Z,99.99
2018-12-21T02:43:00.826Z,99.99
2018-12-21T02:43:26.927Z,99.99
2018-12-21T02:43:53.054Z,99.99
2018-12-21T02:44:19.155Z,99.99
2018-12-21T02:44:45.265Z,99.99
2018-12-21T02:45:11.370Z,99.99
2018-12-21T02:45:37.504Z,99.99
2018-12-21T02:46:03.605Z,99.99
2018-12-21T02:46:29.744Z,99.99
2018-12-21T02:46:55.853Z,99.99
2018-12-21T02:47:21.982Z,99.99
2018-12-21T02:47:48.086Z,99.99
2018-12-21T02:48:14.220Z,99.99
2018-12-21T02:48:40.327Z,99.99
2018-12-21T02:49:06.434Z,99.99
2018-12-21T02:49:32.542Z,99.99
2018-12-21T02:49:58.725Z,99.99
2018-12-21T02:50:24.838Z,99.99
2018-12-21T02:50:51.005Z,99.99
2018-12-21T02:51:17.107Z,99.99
2018-12-21T02:51:43.217Z,99.99
2018-12-21T02:52:11.043Z,99.99
2018-12-21T02:52:37.147Z,99.99
2018-12-21T02:53:03.309Z,99.99
2018-12-21T02:53:29.466Z,99.99
2018-12-21T02:53:55.579Z,99.99
2018-12-21T02:54:21.713Z,99.99
2018-12-21T02:54:47.826Z,99.99
2018-12-21T02:55:13.932Z,99.99
2018-12-21T02:55:40.037Z,99.99
2018-12-21T02:56:06.138Z,99.99
2018-12-21T02:56:32.275Z,99.99
2018-12-21T02:56:58.376Z,99.99
2018-12-21T02:57:24.511Z,99.99
2018-12-21T02:57:50.646Z,99.99
2018-12-21T02:58:16.780Z,99.99
2018-12-21T02:58:42.888Z,99.99
2018-12-21T02:59:08.986Z,99.99
2018-12-21T02:59:35.103Z,99.99
2018-12-21T03:00:01.210Z,99.99
2018-12-21T03:00:27.345Z,99.99
2018-12-21T03:00:53.506Z,99.99
2018-12-21T03:01:19.615Z,99.99
2018-12-21T03:01:45.750Z,99.99
2018-12-21T03:02:11.994Z,99.99
2018-12-21T03:02:38.135Z,99.99
2018-12-21T03:03:04.270Z,99.99
2018-12-21T03:03:30.377Z,99.99
2018-12-21T03:03:56.512Z,99.99
2018-12-21T03:04:22.619Z,99.99
2018-12-21T03:04:48.721Z,99.99
2018-12-21T03:05:14.825Z,99.93
2018-12-21T03:05:40.932Z,99.99
2018-12-21T03:06:07.044Z,99.46
2018-12-21T03:06:33.144Z,99.93
2018-12-21T03:06:59.251Z,99.99
2018-12-21T03:07:25.384Z,99.99
2018-12-21T03:07:51.521Z,99.99
2018-12-21T03:08:17.671Z,99.99
2018-12-21T03:08:43.869Z,99.99
2018-12-21T03:09:10.123Z,99.65
2018-12-21T03:09:36.183Z,99.27
2018-12-21T03:10:02.295Z,99.74
2018-12-21T03:10:28.396Z,99.74
2018-12-21T03:10:54.531Z,99.36
2018-12-21T03:11:20.676Z,99.17
2018-12-21T03:11:46.775Z,99.36
2018-12-21T03:12:12.921Z,99.46
2018-12-21T03:12:39.073Z,99.46
2018-12-21T03:13:05.263Z,99.17
2018-12-21T03:13:31.442Z,99.36
2018-12-21T03:13:57.491Z,99.65
2018-12-21T03:14:23.601Z,99.17
2018-12-21T03:14:49.706Z,98.88
2018-12-21T03:15:15.835Z,98.98
2018-12-21T03:15:41.942Z,98.79
2018-12-21T03:16:08.121Z,98.5
2018-12-21T03:16:34.246Z,98.6
2018-12-21T03:17:00.354Z,98.6
2018-12-21T03:17:26.487Z,98.69
2018-12-21T03:17:52.598Z,98.41
2018-12-21T03:18:18.704Z,98.79
2018-12-21T03:18:44.834Z,98.88
2018-12-21T03:19:10.949Z,98.41
2018-12-21T03:19:37.059Z,98.32
2018-12-21T03:20:03.194Z,98.41
2018-12-21T03:20:29.327Z,98.03
2018-12-21T03:20:55.460Z,98.41
2018-12-21T03:21:21.563Z,98.13
2018-12-21T03:21:47.727Z,98.22
2018-12-21T03:22:15.270Z,97.55
2018-12-21T03:22:40.980Z,97.46
2018-12-21T03:23:07.087Z,97.17
2018-12-21T03:23:33.200Z,97.27
2018-12-21T03:23:59.335Z,97.08
2018-12-21T03:24:25.444Z,97.27
2018-12-21T03:24:51.546Z,97.36
2018-12-21T03:25:17.685Z,96.79
2018-12-21T03:25:43.785Z,96.98
2018-12-21T03:26:09.892Z,97.08
2018-12-21T03:26:35.991Z,97.27
2018-12-21T03:27:02.156Z,97.27
2018-12-21T03:27:28.264Z,96.89
2018-12-21T03:27:54.365Z,96.6
2018-12-21T03:28:20.492Z,96.98
2018-12-21T03:28:46.601Z,96.7
2018-12-21T03:29:12.713Z,96.7
2018-12-21T03:29:38.837Z,97.27
2018-12-21T03:30:04.955Z,97.36
2018-12-21T03:30:31.087Z,97.27
2018-12-21T03:30:57.203Z,96.7
2018-12-21T03:31:23.489Z,96.89
2018-12-21T03:31:49.686Z,97.17
2018-12-21T03:32:15.944Z,96.6
2018-12-21T03:32:42.075Z,96.12
2018-12-21T03:33:08.259Z,96.6
2018-12-21T03:33:34.388Z,96.6
2018-12-21T03:34:00.617Z,96.31
2018-12-21T03:34:26.807Z,96.98
2018-12-21T03:34:52.979Z,96.6
2018-12-21T03:35:19.113Z,96.7
2018-12-21T03:35:45.252Z,97.08
2018-12-21T03:36:11.417Z,96.89
2018-12-21T03:36:37.553Z,96.51
2018-12-21T03:37:03.715Z,96.89
2018-12-21T03:37:29.824Z,96.6
2018-12-21T03:37:55.928Z,96.7
2018-12-21T03:38:22.058Z,96.6
2018-12-21T03:38:48.164Z,96.6
2018-12-21T03:39:14.265Z,96.41
2018-12-21T03:39:40.376Z,96.79
2018-12-21T03:40:06.588Z,96.6
2018-12-21T03:40:32.695Z,96.7
2018-12-21T03:40:58.843Z,97.17
2018-12-21T03:41:24.974Z,96.41
2018-12-21T03:41:51.074Z,97.36
2018-12-21T03:42:17.190Z,96.98
2018-12-21T03:42:43.319Z,96.98
2018-12-21T03:43:09.433Z,97.27
2018-12-21T03:43:35.532Z,96.31
2018-12-21T03:44:01.640Z,96.7
2018-12-21T03:44:27.749Z,96.6
2018-12-21T03:44:53.884Z,96.31
2018-12-21T03:45:19.998Z,96.6
2018-12-21T03:45:46.106Z,96.79
2018-12-21T03:46:12.195Z,96.7
2018-12-21T03:46:38.329Z,96.51
2018-12-21T03:47:04.439Z,97.27
2018-12-21T03:47:30.544Z,96.7
2018-12-21T03:47:56.643Z,96.6
2018-12-21T03:48:22.781Z,96.79
2018-12-21T03:48:48.919Z,96.79
2018-12-21T03:49:15.033Z,96.7
2018-12-21T03:49:41.171Z,96.7
2018-12-21T03:50:07.311Z,96.7
2018-12-21T03:50:33.440Z,96.98
2018-12-21T03:50:59.574Z,96.98
2018-12-21T03:51:25.676Z,96.98
2018-12-21T03:51:51.808Z,97.08
2018-12-21T03:52:24.107Z,96.51
2018-12-21T03:52:45.630Z,96.31
2018-12-21T03:53:11.766Z,96.6
2018-12-21T03:53:37.911Z,96.51
2018-12-21T03:54:04.106Z,96.79
2018-12-21T03:54:30.238Z,96.6
2018-12-21T03:54:56.362Z,96.41
2018-12-21T03:55:22.473Z,96.6
2018-12-21T03:55:48.587Z,96.7
2018-12-21T03:56:14.686Z,96.31
2018-12-21T03:56:40.796Z,96.7
2018-12-21T03:57:06.930Z,96.79
2018-12-21T03:57:33.031Z,96.31
2018-12-21T03:57:59.136Z,96.22
2018-12-21T03:58:25.236Z,96.03
2018-12-21T03:58:51.380Z,95.75
2018-12-21T03:59:17.485Z,96.31
2018-12-21T03:59:43.656Z,95.84
2018-12-21T04:00:09.804Z,96.03
2018-12-21T04:00:35.910Z,95.94
2018-12-21T04:01:02.077Z,96.03
2018-12-21T04:01:28.183Z,96.31
2018-12-21T04:01:54.320Z,96.03
2018-12-21T04:02:20.929Z,96.12
2018-12-21T04:02:47.099Z,96.12
2018-12-21T04:03:13.207Z,96.31
2018-12-21T04:03:39.313Z,96.22
2018-12-21T04:04:05.416Z,96.12
2018-12-21T04:04:31.527Z,96.31
2018-12-21T04:04:57.630Z,96.12
2018-12-21T04:05:23.774Z,95.94
2018-12-21T04:05:49.876Z,95.94
2018-12-21T04:06:16.012Z,95.94
2018-12-21T04:06:42.126Z,96.31
2018-12-21T04:07:08.233Z,96.12
2018-12-21T04:07:34.336Z,96.31
2018-12-21T04:08:00.445Z,96.12
2018-12-21T04:08:26.572Z,95.94
2018-12-21T04:08:52.711Z,96.03
2018-12-21T04:09:18.804Z,96.12
2018-12-21T04:09:44.941Z,95.94
2018-12-21T04:10:11.138Z,96.31
2018-12-21T04:10:37.239Z,96.31
2018-12-21T04:11:03.406Z,96.31
2018-12-21T04:11:29.514Z,96.31
2018-12-21T04:11:55.651Z,96.12
2018-12-21T04:12:21.789Z,96.12
2018-12-21T04:12:47.953Z,95.94
2018-12-21T04:13:14.082Z,96.12
2018-12-21T04:13:40.191Z,96.12
2018-12-21T04:14:06.347Z,96.22
2018-12-21T04:14:32.479Z,96.12
2018-12-21T04:14:58.642Z,96.41
2018-12-21T04:15:24.744Z,96.51
2018-12-21T04:15:50.906Z,95.75
2018-12-21T04:16:17.008Z,95.46
2018-12-21T04:16:43.121Z,95.46
2018-12-21T04:17:09.255Z,95.36
2018-12-21T04:17:35.359Z,95.56
2018-12-21T04:18:01.488Z,95.56
2018-12-21T04:18:27.589Z,95.36
2018-12-21T04:18:53.718Z,95.46
2018-12-21T04:19:19.852Z,95.46
2018-12-21T04:19:45.965Z,95.75
2018-12-21T04:20:12.067Z,95.84
2018-12-21T04:20:38.175Z,95.36
2018-12-21T04:21:04.283Z,95.56
2018-12-21T04:21:30.438Z,95.75
2018-12-21T04:21:56.525Z,95.36
2018-12-21T04:22:22.722Z,95.36
2018-12-21T04:22:48.833Z,95.36
2018-12-21T04:23:14.932Z,95.75
2018-12-21T04:23:41.040Z,95.75
2018-12-21T04:24:07.143Z,95.84
2018-12-21T04:24:33.255Z,95.08
2018-12-21T04:24:59.358Z,95.17
2018-12-21T04:25:25.498Z,95.94
2018-12-21T04:25:51.653Z,95.65
2018-12-21T04:26:17.760Z,95.94
2018-12-21T04:26:43.863Z,95.36
2018-12-21T04:27:09.991Z,95.46
2018-12-21T04:27:36.153Z,95.56
2018-12-21T04:28:02.267Z,95.27
2018-12-21T04:28:28.372Z,95.27
2018-12-21T04:28:54.539Z,95.17
2018-12-21T04:29:20.669Z,95.27
2018-12-21T04:29:46.781Z,95.08
2018-12-21T04:30:12.931Z,94.7
2018-12-21T04:30:39.042Z,94.79
2018-12-21T04:31:05.147Z,95.36
2018-12-21T04:31:31.239Z,95.17
2018-12-21T04:31:57.377Z,95.17
2018-12-21T04:32:23.490Z,94.6
2018-12-21T04:32:49.651Z,94.51
2018-12-21T04:33:15.788Z,94.6
2018-12-21T04:33:41.919Z,94.89
2018-12-21T04:34:08.020Z,94.89
2018-12-21T04:34:34.118Z,94.7
2018-12-21T04:35:00.232Z,94.79
2018-12-21T04:35:26.404Z,94.7
2018-12-21T04:35:52.497Z,94.51
2018-12-21T04:36:18.614Z,94.98
2018-12-21T04:36:44.707Z,94.79
2018-12-21T04:37:10.827Z,94.7
2018-12-21T04:37:36.935Z,94.89
2018-12-21T04:38:03.068Z,94.89
2018-12-21T04:38:29.189Z,94.79
2018-12-21T04:38:55.354Z,94.7
2018-12-21T04:39:21.485Z,94.89
2018-12-21T04:39:47.565Z,94.79
2018-12-21T04:40:13.692Z,94.51
2018-12-21T04:40:39.826Z,94.7
2018-12-21T04:41:05.988Z,94.7
2018-12-21T04:41:32.092Z,94.51
2018-12-21T04:41:58.227Z,94.79
2018-12-21T04:42:24.330Z,94.6
2018-12-21T04:42:50.463Z,94.79
2018-12-21T04:43:16.596Z,94.6
2018-12-21T04:43:42.699Z,94.7
2018-12-21T04:44:08.815Z,94.7
2018-12-21T04:44:34.921Z,94.89
2018-12-21T04:45:01.027Z,94.6
2018-12-21T04:45:27.165Z,94.79
2018-12-21T04:45:53.314Z,94.51
2018-12-21T04:46:19.420Z,94.7
2018-12-21T04:46:45.552Z,94.7
2018-12-21T04:47:11.658Z,94.6
2018-12-21T04:47:37.791Z,93.74
2018-12-21T04:48:03.894Z,93.74
2018-12-21T04:48:30.001Z,93.74
2018-12-21T04:48:56.144Z,94.42
2018-12-21T04:49:22.320Z,94.42
2018-12-21T04:49:48.463Z,94.13
2018-12-21T04:50:14.566Z,94.22
2018-12-21T04:50:40.679Z,94.32
2018-12-21T04:51:06.811Z,93.94
2018-12-21T04:51:32.919Z,93.65
2018-12-21T04:51:59.050Z,93.79
2018-12-21T04:52:25.155Z,93.94
2018-12-21T04:52:52.273Z,93.46
2018-12-21T04:53:18.375Z,94.03
2018-12-21T04:53:44.481Z,93.65
2018-12-21T04:54:10.648Z,93.94
2018-12-21T04:54:36.826Z,93.65
2018-12-21T04:55:02.929Z,93.74
2018-12-21T04:55:29.030Z,94.22
2018-12-21T04:55:55.136Z,94.03
2018-12-21T04:56:21.247Z,94.46
2018-12-21T04:56:47.404Z,93.74
2018-12-21T04:57:13.570Z,93.89
2018-12-21T04:57:39.709Z,93.94
2018-12-21T04:58:05.831Z,93.84
2018-12-21T04:58:31.967Z,94.08
2018-12-21T04:58:58.073Z,93.79
2018-12-21T04:59:25.211Z,93.22
2018-12-21T04:59:51.314Z,93.46
2018-12-21T05:00:17.472Z,93.27
2018-12-21T05:00:43.577Z,92.99
2018-12-21T05:01:09.713Z,93.13
2018-12-21T05:01:35.821Z,93.22
2018-12-21T05:02:01.929Z,94.08
2018-12-21T05:02:28.044Z,93.27
2018-12-21T05:02:54.151Z,93.84
2018-12-21T05:03:20.313Z,93.84
2018-12-21T05:03:46.444Z,94.03
2018-12-21T05:04:19.643Z,94.13
2018-12-21T05:04:40.640Z,93.84
2018-12-21T05:05:06.771Z,93.74
2018-12-21T05:05:32.876Z,93.74
2018-12-21T05:05:59.970Z,94.42
2018-12-21T05:06:26.075Z,94.22
2018-12-21T05:06:52.187Z,94.22
2018-12-21T05:07:18.313Z,94.98
2018-12-21T05:07:44.418Z,94.42
2018-12-21T05:08:10.549Z,94.7
2018-12-21T05:08:36.655Z,94.7
2018-12-21T05:09:02.789Z,94.7
2018-12-21T05:09:28.921Z,94.79
2018-12-21T05:09:55.027Z,95.08
2018-12-21T05:10:21.125Z,94.42
2018-12-21T05:10:47.230Z,94.42
2018-12-21T05:11:13.375Z,95.08
2018-12-21T05:11:39.527Z,94.93
2018-12-21T05:12:05.667Z,94.93
2018-12-21T05:12:31.805Z,94.6
2018-12-21T05:12:57.953Z,94.93
2018-12-21T05:13:24.034Z,94.74
2018-12-21T05:13:50.143Z,94.74
2018-12-21T05:14:17.240Z,94.84
2018-12-21T05:14:43.348Z,94.46
2018-12-21T05:15:09.457Z,94.46
2018-12-21T05:15:35.570Z,95.22
2018-12-21T05:16:01.696Z,94.74
2018-12-21T05:16:27.834Z,94.93
2018-12-21T05:16:53.933Z,94.65
2018-12-21T05:17:20.074Z,94.65
2018-12-21T05:17:46.177Z,94.7
2018-12-21T05:18:12.286Z,94.74
2018-12-21T05:18:38.785Z,94.93
2018-12-21T05:19:05.335Z,94.84
2018-12-21T05:19:31.465Z,94.74
2018-12-21T05:19:57.621Z,94.74
2018-12-21T05:20:23.741Z,94.7
2018-12-21T05:20:49.843Z,95.03
2018-12-21T05:21:15.954Z,95.51
2018-12-21T05:21:42.089Z,95.51
2018-12-21T05:22:08.224Z,95.22
2018-12-21T05:22:34.329Z,95.12
2018-12-21T05:23:01.453Z,95.36
2018-12-21T05:23:27.554Z,95.36
2018-12-21T05:23:53.659Z,95.41
2018-12-21T05:24:19.795Z,95.89
2018-12-21T05:24:45.917Z,95.6
2018-12-21T05:25:12.024Z,95.41
2018-12-21T05:25:38.137Z,95.6
2018-12-21T05:26:04.239Z,95.36
2018-12-21T05:26:30.377Z,95.51
2018-12-21T05:26:56.514Z,95.79
2018-12-21T05:27:22.628Z,95.7
2018-12-21T05:27:48.728Z,95.79
2018-12-21T05:28:14.834Z,95.56
2018-12-21T05:28:40.968Z,95.7
2018-12-21T05:29:07.075Z,96.36
2018-12-21T05:29:33.182Z,96.17
2018-12-21T05:30:00.285Z,95.98
2018-12-21T05:30:26.386Z,96.46
2018-12-21T05:30:52.493Z,95.98
2018-12-21T05:31:18.595Z,96.17
2018-12-21T05:31:45.704Z,95.79
2018-12-21T05:32:11.801Z,95.89
2018-12-21T05:32:37.932Z,95.6
2018-12-21T05:33:04.063Z,95.6
2018-12-21T05:33:30.171Z,95.51
2018-12-21T05:33:56.306Z,95.41
2018-12-21T05:34:22.413Z,95.98
2018-12-21T05:34:49.859Z,96.17
2018-12-21T05:35:15.608Z,96.17
2018-12-21T05:35:41.713Z,96.27
2018-12-21T05:36:07.817Z,96.08
2018-12-21T05:36:33.977Z,95.98
2018-12-21T05:37:00.113Z,95.98
2018-12-21T05:37:26.219Z,95.98